Arletta, Washington
Current Conditions -  °F | °C
As of 3:53 AM on Sunday 21 Dec 2014 (Local Time) from KTIW Reporting Station
Clear Clear  
Wind Chill: 11°   Ceiling: Unl
Heat Index: 11°   Visibility: 10mi
Dew Point:   Wind: 13mph
Humidity: 80%   Direction: 230°SW
Pressure: 29.76"   Gusts: 22mph
Location:  47.2986°N, 122.616°W
Report Text: KTIW 211153Z AUTO 23011G19KT 10SM CLR 11/07 A2976 RMK AO2 SLP078 60002 70104 T01060072 10122 20106 53038
Loading
Personal Weather Stations






























Interactive Weather Map New forecast layout! Learn more

10-Day Weather Forecast

Advertisements
Track Severe Weather on mobile